sensor_id;sensor_type;location;lat;lon;timestamp;temperature;humidity
16907;DHT22;8570;52.380;4.654;2023-02-11T00:00:31;7.60;99.90
16907;DHT22;8570;52.380;4.654;2023-02-11T00:05:35;7.60;99.90
16907;DHT22;8570;52.380;4.654;2023-02-11T00:10:37;7.60;99.90
16907;DHT22;8570;52.380;4.654;2023-02-11T00:15:39;7.60;99.90
16907;DHT22;8570;52.380;4.654;2023-02-11T00:20:42;7.50;99.90
16907;DHT22;8570;52.380;4.654;2023-02-11T00:25:44;7.50;99.90
16907;DHT22;8570;52.380;4.654;2023-02-11T00:30:53;7.50;99.90
16907;DHT22;8570;52.380;4.654;2023-02-11T00:35:56;7.40;99.90
16907;DHT22;8570;52.380;4.654;2023-02-11T00:40:58;7.50;99.90
16907;DHT22;8570;52.380;4.654;2023-02-11T00:46:00;7.40;99.90
16907;DHT22;8570;52.380;4.654;2023-02-11T00:51:04;7.40;99.90
16907;DHT22;8570;52.380;4.654;2023-02-11T00:56:06;7.40;99.90
16907;DHT22;8570;52.380;4.654;2023-02-11T01:01:08;7.30;99.90
16907;DHT22;8570;52.380;4.654;2023-02-11T01:06:11;7.30;99.90
16907;DHT22;8570;52.380;4.654;2023-02-11T01:11:16;7.30;99.90
16907;DHT22;8570;52.380;4.654;2023-02-11T01:16:18;7.30;99.90
16907;DHT22;8570;52.380;4.654;2023-02-11T01:21:29;7.20;99.90
16907;DHT22;8570;52.380;4.654;2023-02-11T01:26:32;7.20;99.90
16907;DHT22;8570;52.380;4.654;2023-02-11T01:31:34;7.20;99.90
16907;DHT22;8570;52.380;4.654;2023-02-11T01:36:37;7.10;99.90
16907;DHT22;8570;52.380;4.654;2023-02-11T01:41:39;7.10;99.90
16907;DHT22;8570;52.380;4.654;2023-02-11T01:46:41;7.10;99.90
16907;DHT22;8570;52.380;4.654;2023-02-11T01:51:48;7.10;99.90
16907;DHT22;8570;52.380;4.654;2023-02-11T01:56:54;7.00;99.90
16907;DHT22;8570;52.380;4.654;2023-02-11T02:02:16;7.00;99.90
16907;DHT22;8570;52.380;4.654;2023-02-11T02:07:28;7.00;99.90
16907;DHT22;8570;52.380;4.654;2023-02-11T02:12:33;7.00;99.90
16907;DHT22;8570;52.380;4.654;2023-02-11T02:17:44;7.00;99.90
16907;DHT22;8570;52.380;4.654;2023-02-11T02:28:54;6.90;99.90
16907;DHT22;8570;52.380;4.654;2023-02-11T02:34:03;6.90;99.90
16907;DHT22;8570;52.380;4.654;2023-02-11T02:39:10;6.90;99.90
16907;DHT22;8570;52.380;4.654;2023-02-11T02:44:15;6.90;99.90
16907;DHT22;8570;52.380;4.654;2023-02-11T02:49:18;6.90;99.90
16907;DHT22;8570;52.380;4.654;2023-02-11T02:54:32;6.90;99.90
16907;DHT22;8570;52.380;4.654;2023-02-11T02:59:47;6.80;99.90
16907;DHT22;8570;52.380;4.654;2023-02-11T03:05:02;6.80;99.90
16907;DHT22;8570;52.380;4.654;2023-02-11T03:10:09;6.80;99.90
16907;DHT22;8570;52.380;4.654;2023-02-11T03:15:14;6.80;99.90
16907;DHT22;8570;52.380;4.654;2023-02-11T03:20:21;6.80;99.90
16907;DHT22;8570;52.380;4.654;2023-02-11T03:25:28;6.80;99.90
16907;DHT22;8570;52.380;4.654;2023-02-11T03:30:33;6.80;99.90
16907;DHT22;8570;52.380;4.654;2023-02-11T03:35:42;6.80;99.90
16907;DHT22;8570;52.380;4.654;2023-02-11T03:40:46;6.80;99.90
16907;DHT22;8570;52.380;4.654;2023-02-11T03:45:50;6.80;99.90
16907;DHT22;8570;52.380;4.654;2023-02-11T03:50:55;6.80;99.90
16907;DHT22;8570;52.380;4.654;2023-02-11T03:56:02;6.80;99.90
16907;DHT22;8570;52.380;4.654;2023-02-11T04:01:06;6.80;99.90
16907;DHT22;8570;52.380;4.654;2023-02-11T04:06:10;6.90;99.90
16907;DHT22;8570;52.380;4.654;2023-02-11T04:11:14;6.90;99.90
16907;DHT22;8570;52.380;4.654;2023-02-11T04:16:16;7.00;99.90
16907;DHT22;8570;52.380;4.654;2023-02-11T04:21:20;7.00;99.90
16907;DHT22;8570;52.380;4.654;2023-02-11T04:26:21;7.00;99.90
16907;DHT22;8570;52.380;4.654;2023-02-11T04:31:23;7.10;99.90
16907;DHT22;8570;52.380;4.654;2023-02-11T04:36:27;7.10;99.90
16907;DHT22;8570;52.380;4.654;2023-02-11T04:41:28;7.10;99.90
16907;DHT22;8570;52.380;4.654;2023-02-11T04:46:30;7.10;99.90
16907;DHT22;8570;52.380;4.654;2023-02-11T04:51:36;7.20;99.90
16907;DHT22;8570;52.380;4.654;2023-02-11T04:56:38;7.10;99.90
16907;DHT22;8570;52.380;4.654;2023-02-11T05:01:40;7.20;99.90
16907;DHT22;8570;52.380;4.654;2023-02-11T05:06:43;7.20;99.90
16907;DHT22;8570;52.380;4.654;2023-02-11T05:11:45;7.20;99.90
16907;DHT22;8570;52.380;4.654;2023-02-11T05:16:47;7.20;99.90
16907;DHT22;8570;52.380;4.654;2023-02-11T05:21:50;7.30;99.90
16907;DHT22;8570;52.380;4.654;2023-02-11T05:26:52;7.30;99.90
16907;DHT22;8570;52.380;4.654;2023-02-11T05:31:54;7.30;99.90
16907;DHT22;8570;52.380;4.654;2023-02-11T05:36:58;7.40;99.90
16907;DHT22;8570;52.380;4.654;2023-02-11T05:42:00;7.40;99.90
16907;DHT22;8570;52.380;4.654;2023-02-11T05:47:01;7.40;99.90
16907;DHT22;8570;52.380;4.654;2023-02-11T05:52:05;7.40;99.90
16907;DHT22;8570;52.380;4.654;2023-02-11T05:57:07;7.40;99.90
16907;DHT22;8570;52.380;4.654;2023-02-11T06:02:09;7.40;99.90
16907;DHT22;8570;52.380;4.654;2023-02-11T06:07:12;7.50;99.90
16907;DHT22;8570;52.380;4.654;2023-02-11T06:12:14;7.50;99.90
16907;DHT22;8570;52.380;4.654;2023-02-11T06:17:16;7.50;99.90
16907;DHT22;8570;52.380;4.654;2023-02-11T06:22:20;7.50;99.90
16907;DHT22;8570;52.380;4.654;2023-02-11T06:27:21;7.50;99.90
16907;DHT22;8570;52.380;4.654;2023-02-11T06:32:23;7.50;99.90
16907;DHT22;8570;52.380;4.654;2023-02-11T06:37:32;7.60;99.90
16907;DHT22;8570;52.380;4.654;2023-02-11T06:42:34;7.60;99.90
16907;DHT22;8570;52.380;4.654;2023-02-11T06:47:38;7.50;99.90
16907;DHT22;8570;52.380;4.654;2023-02-11T06:52:42;7.50;99.90
16907;DHT22;8570;52.380;4.654;2023-02-11T06:57:44;7.40;99.90
16907;DHT22;8570;52.380;4.654;2023-02-11T07:02:46;7.40;99.90
16907;DHT22;8570;52.380;4.654;2023-02-11T07:07:49;7.40;99.90
16907;DHT22;8570;52.380;4.654;2023-02-11T07:12:54;7.40;99.90
16907;DHT22;8570;52.380;4.654;2023-02-11T07:17:56;7.40;99.90
16907;DHT22;8570;52.380;4.654;2023-02-11T07:23:00;7.40;99.90
16907;DHT22;8570;52.380;4.654;2023-02-11T07:28:03;7.40;99.90
16907;DHT22;8570;52.380;4.654;2023-02-11T07:33:05;7.40;99.90
16907;DHT22;8570;52.380;4.654;2023-02-11T07:38:10;7.40;99.90
16907;DHT22;8570;52.380;4.654;2023-02-11T07:43:12;7.40;99.90
16907;DHT22;8570;52.380;4.654;2023-02-11T07:48:14;7.40;99.90
16907;DHT22;8570;52.380;4.654;2023-02-11T07:53:17;7.40;99.90
16907;DHT22;8570;52.380;4.654;2023-02-11T07:58:19;7.40;99.90
16907;DHT22;8570;52.380;4.654;2023-02-11T08:03:20;7.40;99.90
16907;DHT22;8570;52.380;4.654;2023-02-11T08:08:24;7.40;99.90
16907;DHT22;8570;52.380;4.654;2023-02-11T08:13:27;7.40;99.90
16907;DHT22;8570;52.380;4.654;2023-02-11T08:18:29;7.40;99.90
16907;DHT22;8570;52.380;4.654;2023-02-11T08:23:34;7.50;99.90
16907;DHT22;8570;52.380;4.654;2023-02-11T08:28:36;7.50;99.90
16907;DHT22;8570;52.380;4.654;2023-02-11T08:33:39;7.50;99.90
16907;DHT22;8570;52.380;4.654;2023-02-11T08:38:42;7.60;99.90
16907;DHT22;8570;52.380;4.654;2023-02-11T08:43:45;7.60;99.90
16907;DHT22;8570;52.380;4.654;2023-02-11T08:48:47;7.60;99.90
16907;DHT22;8570;52.380;4.654;2023-02-11T08:53:51;7.60;99.90
16907;DHT22;8570;52.380;4.654;2023-02-11T08:58:53;7.70;99.90
16907;DHT22;8570;52.380;4.654;2023-02-11T09:03:55;7.70;99.90
16907;DHT22;8570;52.380;4.654;2023-02-11T09:08:58;7.80;99.90
16907;DHT22;8570;52.380;4.654;2023-02-11T09:14:01;7.80;99.90
16907;DHT22;8570;52.380;4.654;2023-02-11T09:19:04;7.90;99.90
16907;DHT22;8570;52.380;4.654;2023-02-11T09:24:07;8.00;99.90
16907;DHT22;8570;52.380;4.654;2023-02-11T09:29:10;8.00;99.90
16907;DHT22;8570;52.380;4.654;2023-02-11T09:34:12;8.10;99.90
16907;DHT22;8570;52.380;4.654;2023-02-11T09:39:18;8.10;99.90
16907;DHT22;8570;52.380;4.654;2023-02-11T09:44:22;8.20;99.90
16907;DHT22;8570;52.380;4.654;2023-02-11T09:49:31;8.20;99.90
16907;DHT22;8570;52.380;4.654;2023-02-11T09:54:41;8.20;99.90
16907;DHT22;8570;52.380;4.654;2023-02-11T09:59:46;8.30;99.90
16907;DHT22;8570;52.380;4.654;2023-02-11T10:05:16;8.40;99.90
16907;DHT22;8570;52.380;4.654;2023-02-11T10:10:34;8.60;99.90
16907;DHT22;8570;52.380;4.654;2023-02-11T10:15:44;8.80;99.90
16907;DHT22;8570;52.380;4.654;2023-02-11T10:20:51;8.90;99.90
16907;DHT22;8570;52.380;4.654;2023-02-11T10:25:58;9.00;99.90
16907;DHT22;8570;52.380;4.654;2023-02-11T10:31:02;9.10;99.90
16907;DHT22;8570;52.380;4.654;2023-02-11T10:36:06;9.20;99.90
16907;DHT22;8570;52.380;4.654;2023-02-11T10:41:19;9.20;99.90
16907;DHT22;8570;52.380;4.654;2023-02-11T10:46:25;9.30;99.90
16907;DHT22;8570;52.380;4.654;2023-02-11T10:51:31;9.40;99.90
16907;DHT22;8570;52.380;4.654;2023-02-11T10:56:37;9.40;99.90
16907;DHT22;8570;52.380;4.654;2023-02-11T11:01:44;9.50;99.90
16907;DHT22;8570;52.380;4.654;2023-02-11T11:06:46;9.50;99.90
16907;DHT22;8570;52.380;4.654;2023-02-11T11:11:52;9.50;99.90
16907;DHT22;8570;52.380;4.654;2023-02-11T11:16:54;9.60;99.90
16907;DHT22;8570;52.380;4.654;2023-02-11T11:21:56;9.60;99.90
16907;DHT22;8570;52.380;4.654;2023-02-11T11:27:01;9.70;99.90
16907;DHT22;8570;52.380;4.654;2023-02-11T11:32:05;9.80;99.90
16907;DHT22;8570;52.380;4.654;2023-02-11T11:37:13;9.80;99.90
16907;DHT22;8570;52.380;4.654;2023-02-11T11:42:29;9.80;99.90
16907;DHT22;8570;52.380;4.654;2023-02-11T11:47:35;9.70;99.90
16907;DHT22;8570;52.380;4.654;2023-02-11T11:52:44;9.70;99.90
16907;DHT22;8570;52.380;4.654;2023-02-11T11:57:48;9.70;99.90
16907;DHT22;8570;52.380;4.654;2023-02-11T12:08:30;9.70;99.90
16907;DHT22;8570;52.380;4.654;2023-02-11T12:19:15;10.00;99.90
16907;DHT22;8570;52.380;4.654;2023-02-11T12:24:35;10.10;99.90
16907;DHT22;8570;52.380;4.654;2023-02-11T12:29:54;10.10;99.90
16907;DHT22;8570;52.380;4.654;2023-02-11T12:35:27;10.10;99.90
16907;DHT22;8570;52.380;4.654;2023-02-11T12:40:39;10.20;99.90
16907;DHT22;8570;52.380;4.654;2023-02-11T12:46:10;10.30;99.90
16907;DHT22;8570;52.380;4.654;2023-02-11T12:51:20;10.30;99.90
16907;DHT22;8570;52.380;4.654;2023-02-11T12:56:28;10.40;99.90
16907;DHT22;8570;52.380;4.654;2023-02-11T13:01:35;10.40;99.90
16907;DHT22;8570;52.380;4.654;2023-02-11T13:16:53;10.40;99.90
16907;DHT22;8570;52.380;4.654;2023-02-11T13:22:06;10.40;99.90
16907;DHT22;8570;52.380;4.654;2023-02-11T13:27:27;10.40;99.90
16907;DHT22;8570;52.380;4.654;2023-02-11T13:33:13;10.40;99.90
16907;DHT22;8570;52.380;4.654;2023-02-11T13:38:19;10.40;99.90
16907;DHT22;8570;52.380;4.654;2023-02-11T13:43:23;10.40;99.90
16907;DHT22;8570;52.380;4.654;2023-02-11T13:48:30;10.40;99.90
16907;DHT22;8570;52.380;4.654;2023-02-11T13:53:45;10.40;99.90
16907;DHT22;8570;52.380;4.654;2023-02-11T13:58:49;10.30;99.90
16907;DHT22;8570;52.380;4.654;2023-02-11T14:04:20;10.40;99.90
16907;DHT22;8570;52.380;4.654;2023-02-11T14:09:40;10.40;99.90
16907;DHT22;8570;52.380;4.654;2023-02-11T14:14:58;10.40;99.90
16907;DHT22;8570;52.380;4.654;2023-02-11T14:20:30;10.30;99.90
16907;DHT22;8570;52.380;4.654;2023-02-11T14:25:26;10.30;99.90
16907;DHT22;8570;52.380;4.654;2023-02-11T14:30:41;10.20;99.90
16907;DHT22;8570;52.380;4.654;2023-02-11T14:35:59;10.10;99.90
16907;DHT22;8570;52.380;4.654;2023-02-11T14:41:07;10.10;99.90
16907;DHT22;8570;52.380;4.654;2023-02-11T14:46:10;10.10;99.90
16907;DHT22;8570;52.380;4.654;2023-02-11T14:51:17;10.10;99.90
16907;DHT22;8570;52.380;4.654;2023-02-11T14:56:22;10.10;99.90
16907;DHT22;8570;52.380;4.654;2023-02-11T15:01:29;10.10;99.90
16907;DHT22;8570;52.380;4.654;2023-02-11T15:06:35;10.10;99.90
16907;DHT22;8570;52.380;4.654;2023-02-11T15:11:39;10.10;99.90
16907;DHT22;8570;52.380;4.654;2023-02-11T15:16:42;10.10;99.90
16907;DHT22;8570;52.380;4.654;2023-02-11T15:21:47;10.10;99.90
16907;DHT22;8570;52.380;4.654;2023-02-11T15:26:56;10.00;99.90
16907;DHT22;8570;52.380;4.654;2023-02-11T15:32:05;10.00;99.90
16907;DHT22;8570;52.380;4.654;2023-02-11T15:37:12;9.90;99.90
16907;DHT22;8570;52.380;4.654;2023-02-11T15:42:23;9.90;99.90
16907;DHT22;8570;52.380;4.654;2023-02-11T15:47:25;9.80;99.90
16907;DHT22;8570;52.380;4.654;2023-02-11T15:52:28;9.70;99.90
16907;DHT22;8570;52.380;4.654;2023-02-11T15:57:30;9.70;99.90
16907;DHT22;8570;52.380;4.654;2023-02-11T16:02:35;9.60;99.90
16907;DHT22;8570;52.380;4.654;2023-02-11T16:07:47;9.60;99.90
16907;DHT22;8570;52.380;4.654;2023-02-11T16:12:51;9.50;99.90
16907;DHT22;8570;52.380;4.654;2023-02-11T16:17:53;9.50;99.90
16907;DHT22;8570;52.380;4.654;2023-02-11T16:22:57;9.50;99.90
16907;DHT22;8570;52.380;4.654;2023-02-11T16:27:59;9.40;99.90
16907;DHT22;8570;52.380;4.654;2023-02-11T16:33:01;9.40;99.90
16907;DHT22;8570;52.380;4.654;2023-02-11T16:38:05;9.30;99.90
16907;DHT22;8570;52.380;4.654;2023-02-11T16:43:07;9.30;99.90
16907;DHT22;8570;52.380;4.654;2023-02-11T16:48:10;9.30;99.90
16907;DHT22;8570;52.380;4.654;2023-02-11T16:53:19;9.20;99.90
16907;DHT22;8570;52.380;4.654;2023-02-11T16:58:21;9.20;99.90
16907;DHT22;8570;52.380;4.654;2023-02-11T17:03:25;9.20;99.90
16907;DHT22;8570;52.380;4.654;2023-02-11T17:08:29;9.60;99.90
16907;DHT22;8570;52.380;4.654;2023-02-11T17:13:31;9.60;99.90
16907;DHT22;8570;52.380;4.654;2023-02-11T17:18:33;9.50;99.90
16907;DHT22;8570;52.380;4.654;2023-02-11T17:23:37;9.30;99.90
16907;DHT22;8570;52.380;4.654;2023-02-11T17:28:39;9.20;99.90
16907;DHT22;8570;52.380;4.654;2023-02-11T17:33:41;9.10;99.90
16907;DHT22;8570;52.380;4.654;2023-02-11T17:38:45;9.10;99.90
16907;DHT22;8570;52.380;4.654;2023-02-11T17:43:46;9.00;99.90
16907;DHT22;8570;52.380;4.654;2023-02-11T17:48:48;9.00;99.90
16907;DHT22;8570;52.380;4.654;2023-02-11T17:53:52;9.00;99.90
16907;DHT22;8570;52.380;4.654;2023-02-11T17:58:54;8.90;99.90
16907;DHT22;8570;52.380;4.654;2023-02-11T18:03:56;8.90;99.90
16907;DHT22;8570;52.380;4.654;2023-02-11T18:09:00;8.80;99.90
16907;DHT22;8570;52.380;4.654;2023-02-11T18:14:05;8.80;99.90
16907;DHT22;8570;52.380;4.654;2023-02-11T18:19:07;8.80;99.90
16907;DHT22;8570;52.380;4.654;2023-02-11T18:24:10;8.80;99.90
16907;DHT22;8570;52.380;4.654;2023-02-11T18:29:12;8.80;99.90
16907;DHT22;8570;52.380;4.654;2023-02-11T18:34:14;8.80;99.90
16907;DHT22;8570;52.380;4.654;2023-02-11T18:39:18;8.80;99.90
16907;DHT22;8570;52.380;4.654;2023-02-11T18:44:20;8.80;99.90
16907;DHT22;8570;52.380;4.654;2023-02-11T18:49:24;8.80;99.90
16907;DHT22;8570;52.380;4.654;2023-02-11T18:54:27;8.80;99.90
16907;DHT22;8570;52.380;4.654;2023-02-11T18:59:29;8.80;99.90
16907;DHT22;8570;52.380;4.654;2023-02-11T19:04:31;8.80;99.90
16907;DHT22;8570;52.380;4.654;2023-02-11T19:09:34;8.80;99.90
16907;DHT22;8570;52.380;4.654;2023-02-11T19:14:36;8.80;99.90
16907;DHT22;8570;52.380;4.654;2023-02-11T19:19:38;8.70;99.90
16907;DHT22;8570;52.380;4.654;2023-02-11T19:24:42;8.70;99.90
16907;DHT22;8570;52.380;4.654;2023-02-11T19:29:44;8.70;99.90
16907;DHT22;8570;52.380;4.654;2023-02-11T19:34:46;8.70;99.90
16907;DHT22;8570;52.380;4.654;2023-02-11T19:39:49;8.70;99.90
16907;DHT22;8570;52.380;4.654;2023-02-11T19:44:51;8.70;99.90
16907;DHT22;8570;52.380;4.654;2023-02-11T19:49:53;8.60;99.90
16907;DHT22;8570;52.380;4.654;2023-02-11T19:54:56;8.60;99.90
16907;DHT22;8570;52.380;4.654;2023-02-11T19:59:58;8.60;99.90
16907;DHT22;8570;52.380;4.654;2023-02-11T20:05:00;8.60;99.90
16907;DHT22;8570;52.380;4.654;2023-02-11T20:10:06;8.60;99.90
16907;DHT22;8570;52.380;4.654;2023-02-11T20:15:09;8.60;99.90
16907;DHT22;8570;52.380;4.654;2023-02-11T20:20:11;8.60;99.90
16907;DHT22;8570;52.380;4.654;2023-02-11T20:25:14;8.50;99.90
16907;DHT22;8570;52.380;4.654;2023-02-11T20:30:16;8.50;99.90
16907;DHT22;8570;52.380;4.654;2023-02-11T20:35:18;8.50;99.90
16907;DHT22;8570;52.380;4.654;2023-02-11T20:40:21;8.50;99.90
16907;DHT22;8570;52.380;4.654;2023-02-11T20:45:23;8.50;99.90
16907;DHT22;8570;52.380;4.654;2023-02-11T20:50:25;8.50;99.90
16907;DHT22;8570;52.380;4.654;2023-02-11T20:55:29;8.50;99.90
16907;DHT22;8570;52.380;4.654;2023-02-11T21:00:31;8.50;99.90
16907;DHT22;8570;52.380;4.654;2023-02-11T21:05:33;8.50;99.90
16907;DHT22;8570;52.380;4.654;2023-02-11T21:10:37;8.50;99.90
16907;DHT22;8570;52.380;4.654;2023-02-11T21:15:40;8.40;99.90
16907;DHT22;8570;52.380;4.654;2023-02-11T21:20:42;8.40;99.90
16907;DHT22;8570;52.380;4.654;2023-02-11T21:25:46;8.40;99.90
16907;DHT22;8570;52.380;4.654;2023-02-11T21:30:49;8.40;99.90
16907;DHT22;8570;52.380;4.654;2023-02-11T21:35:53;8.40;99.90
16907;DHT22;8570;52.380;4.654;2023-02-11T21:41:01;8.40;99.90
16907;DHT22;8570;52.380;4.654;2023-02-11T21:46:06;8.40;99.90
16907;DHT22;8570;52.380;4.654;2023-02-11T21:51:12;8.40;99.90
16907;DHT22;8570;52.380;4.654;2023-02-11T21:56:17;8.40;99.90
16907;DHT22;8570;52.380;4.654;2023-02-11T22:01:20;8.40;99.90
16907;DHT22;8570;52.380;4.654;2023-02-11T22:06:25;8.40;99.90
16907;DHT22;8570;52.380;4.654;2023-02-11T22:11:28;8.40;99.90
16907;DHT22;8570;52.380;4.654;2023-02-11T22:16:30;8.40;99.90
16907;DHT22;8570;52.380;4.654;2023-02-11T22:21:32;8.40;99.90
16907;DHT22;8570;52.380;4.654;2023-02-11T22:26:35;8.40;99.90
16907;DHT22;8570;52.380;4.654;2023-02-11T22:31:37;8.40;99.90
16907;DHT22;8570;52.380;4.654;2023-02-11T22:36:40;8.40;99.90
16907;DHT22;8570;52.380;4.654;2023-02-11T22:41:46;8.40;99.90
16907;DHT22;8570;52.380;4.654;2023-02-11T22:46:51;8.40;99.90
16907;DHT22;8570;52.380;4.654;2023-02-11T22:51:53;8.40;99.90
16907;DHT22;8570;52.380;4.654;2023-02-11T22:56:56;8.40;99.90
16907;DHT22;8570;52.380;4.654;2023-02-11T23:01:58;8.40;99.90
16907;DHT22;8570;52.380;4.654;2023-02-11T23:07:01;8.40;99.90
16907;DHT22;8570;52.380;4.654;2023-02-11T23:12:04;8.40;99.90
16907;DHT22;8570;52.380;4.654;2023-02-11T23:17:06;8.40;99.90
16907;DHT22;8570;52.380;4.654;2023-02-11T23:22:08;8.40;99.90
16907;DHT22;8570;52.380;4.654;2023-02-11T23:27:12;8.40;99.90
16907;DHT22;8570;52.380;4.654;2023-02-11T23:32:13;8.50;99.90
16907;DHT22;8570;52.380;4.654;2023-02-11T23:37:15;8.50;99.90
16907;DHT22;8570;52.380;4.654;2023-02-11T23:42:18;8.50;99.90
16907;DHT22;8570;52.380;4.654;2023-02-11T23:47:20;8.50;99.90
16907;DHT22;8570;52.380;4.654;2023-02-11T23:52:22;8.50;99.90
16907;DHT22;8570;52.380;4.654;2023-02-11T23:57:26;8.50;99.90
